KBHK

Baker Municipal Airport

Baker, Montana, USA
METAR KBHK 190451Z AUTO 09016KT 10SM CLR 13/06 A2998 RMK AO2 SLPNO T01330056
Observed Flight Rules
Sep-19 @ 04:51 UTC (58 minutes ago) Visual Flight Rules
Wind Visibility Clouds
90° at 16 knots 10 miles
  • Clear skies
Temperatures Readings
Current 13°C / 55°F
Dewpoint 6°C / 43°F
Humidity 63%
Altimeter 29.98" Hg
Pressure 1015 hPa
Elevation 902
METAR KBHK 190451Z AUTO 09016KT 10SM CLR 13/06 A2998 RMK AO2 SLPNO T01330056
Observed Flight Rules
Sep-19 @ 04:51 UTC
(58 minutes ago)
VFR
Wind Visibility
90° at 16 knots 10 miles
Clouds
  • Clear skies
Temperature Dewpoint
13°C / 55°F 6°C / 43°F
Humidity Altimeter Pressure
63% 29.98" Hg 1015 hPa